Terminal Aerodrome Forecast
Issued by NWS Corpus Christi, TX

Home | Current Version | Previous Version | Text Only | Print | Product List | Glossary On
Versions: 1 2 3 4 5 6 7 8 9 10 11 12 13 14
225
FTUS44 KCRP 250532
TAFCRP
TAF
KCRP 250532Z 2506/2606 16007KT P6SM FEW018
     FM250800 17005KT P6SM SCT020
      TEMPO 2509/2513 BKN020
     FM251500 15008KT P6SM VCSH SCT025
      TEMPO 2515/2517 BKN025
     FM251700 13010KT P6SM SCT035
     FM252000 12012G18KT P6SM FEW030
     FM260200 13007KT P6SM SCT020=

USA.gov is the U.S. government's official web portal to all federal, state and local government web resources and services.